createdAt,value
2023-03-26T00:00:24.884Z,4.70
2023-03-26T00:03:15.973Z,4.70
2023-03-26T00:05:47.683Z,4.50
2023-03-26T00:08:17.182Z,4.50
2023-03-26T00:10:46.772Z,4.50
2023-03-26T00:13:15.507Z,4.30
2023-03-26T00:15:44.297Z,5.10
2023-03-26T00:18:13.149Z,4.00
2023-03-26T00:20:42.015Z,4.40
2023-03-26T00:23:10.662Z,4.20
2023-03-26T00:25:41.068Z,3.80
2023-03-26T00:28:10.046Z,4.40
2023-03-26T00:30:41.119Z,4.00
2023-03-26T00:33:11.304Z,3.40
2023-03-26T00:35:40.014Z,3.80
2023-03-26T00:38:08.771Z,4.40
2023-03-26T00:40:37.569Z,4.20
2023-03-26T00:43:18.023Z,4.30
2023-03-26T00:45:48.526Z,4.40
2023-03-26T00:48:18.435Z,4.10
2023-03-26T00:50:50.640Z,4.00
2023-03-26T00:53:20.398Z,3.70
2023-03-26T00:55:59.688Z,4.00
2023-03-26T00:58:30.465Z,3.80
2023-03-26T01:01:02.877Z,3.80
2023-03-26T01:03:34.782Z,3.80
2023-03-26T01:06:08.001Z,3.30
2023-03-26T01:08:40.734Z,3.80
2023-03-26T01:11:16.287Z,3.60
2023-03-26T01:13:48.692Z,4.10
2023-03-26T01:16:25.145Z,4.30
2023-03-26T01:18:58.203Z,3.80
2023-03-26T01:21:31.377Z,3.50
2023-03-26T01:24:02.547Z,2.90
2023-03-26T01:27:00.954Z,2.80
2023-03-26T01:29:38.773Z,3.10
2023-03-26T01:32:23.105Z,3.10
2023-03-26T01:35:09.358Z,3.40
2023-03-26T01:37:47.746Z,3.00
2023-03-26T01:40:25.255Z,3.80
2023-03-26T01:43:01.137Z,3.10
2023-03-26T01:45:36.313Z,3.20
2023-03-26T01:48:06.978Z,3.40
2023-03-26T01:50:36.111Z,3.20
2023-03-26T01:53:05.559Z,3.00
2023-03-26T01:55:49.169Z,3.40
2023-03-26T01:58:26.517Z,3.10
2023-03-26T02:01:06.815Z,2.70
2023-03-26T02:03:44.401Z,3.30
2023-03-26T02:06:20.992Z,2.40
2023-03-26T02:08:53.480Z,2.40
2023-03-26T02:11:23.330Z,2.80
2023-03-26T02:13:52.967Z,2.60
2023-03-26T02:16:23.044Z,2.60
2023-03-26T02:18:55.148Z,3.20
2023-03-26T02:21:26.248Z,3.10
2023-03-26T02:24:02.257Z,2.60
2023-03-26T02:26:37.099Z,2.80
2023-03-26T02:29:14.246Z,3.00
2023-03-26T02:31:45.600Z,2.70
2023-03-26T02:34:14.436Z,2.80
2023-03-26T02:36:49.268Z,2.60
2023-03-26T03:09:15.892Z,2.40
2023-03-26T03:12:04.832Z,2.40
2023-03-26T03:14:35.961Z,2.60
2023-03-26T03:17:10.336Z,1.90
2023-03-26T03:19:40.587Z,2.60
2023-03-26T03:22:10.796Z,2.70
2023-03-26T03:24:43.292Z,2.10
2023-03-26T03:27:13.212Z,2.50
2023-03-26T03:29:47.104Z,2.10
2023-03-26T03:32:45.508Z,2.70
2023-03-26T03:35:15.604Z,2.40
2023-03-26T03:37:46.487Z,2.20
2023-03-26T03:40:15.823Z,2.30
2023-03-26T03:42:44.870Z,2.90
2023-03-26T03:45:15.260Z,2.20
2023-03-26T03:47:56.470Z,2.50
2023-03-26T03:50:31.351Z,2.10
2023-03-26T03:53:15.791Z,2.00
2023-03-26T03:55:52.393Z,2.30
2023-03-26T03:58:24.352Z,2.00
2023-03-26T04:01:00.223Z,2.10
2023-03-26T04:03:48.082Z,2.10
2023-03-26T04:06:18.679Z,2.60
2023-03-26T04:08:48.281Z,2.30
2023-03-26T04:11:18.120Z,2.30
2023-03-26T04:14:12.349Z,1.90
2023-03-26T04:16:54.526Z,2.00
2023-03-26T04:19:24.222Z,2.10
2023-03-26T04:21:53.855Z,2.50
2023-03-26T04:24:24.104Z,2.10
2023-03-26T04:27:31.552Z,2.10
2023-03-26T04:30:21.459Z,2.40
2023-03-26T04:33:16.482Z,1.80
2023-03-26T04:35:47.836Z,2.10
2023-03-26T04:38:17.828Z,1.80
2023-03-26T04:40:49.224Z,2.20
2023-03-26T04:43:21.064Z,2.30
2023-03-26T04:46:14.189Z,2.00
2023-03-26T04:48:50.432Z,2.00
2023-03-26T04:51:29.279Z,2.20
2023-03-26T04:54:00.241Z,1.90
2023-03-26T04:56:44.726Z,2.00
2023-03-26T04:59:48.152Z,2.00
2023-03-26T05:02:17.645Z,2.60
2023-03-26T05:04:56.641Z,2.20
2023-03-26T05:07:27.371Z,2.30
2023-03-26T05:09:57.905Z,2.80
2023-03-26T05:12:53.167Z,2.20
2023-03-26T05:18:19.319Z,2.00
2023-03-26T05:20:53.039Z,2.50
2023-03-26T05:23:22.213Z,2.50
2023-03-26T05:28:29.088Z,2.00
2023-03-26T05:31:06.506Z,2.10
2023-03-26T05:33:38.548Z,2.30
2023-03-26T05:36:13.263Z,2.60
2023-03-26T05:38:50.003Z,2.30
2023-03-26T05:41:42.766Z,2.30
2023-03-26T05:44:12.066Z,2.90
2023-03-26T05:46:41.632Z,2.60
2023-03-26T05:49:12.532Z,1.90
2023-03-26T05:51:41.511Z,2.30
2023-03-26T05:54:31.975Z,2.20
2023-03-26T05:57:27.713Z,2.20
2023-03-26T06:00:21.112Z,1.80
2023-03-26T06:02:56.837Z,2.60
2023-03-26T06:05:49.572Z,1.90
2023-03-26T06:08:33.039Z,2.10
2023-03-26T06:11:03.501Z,1.80
2023-03-26T06:13:36.635Z,1.80
2023-03-26T06:16:07.421Z,2.00
2023-03-26T06:18:39.366Z,1.70
2023-03-26T06:21:41.121Z,2.10
2023-03-26T06:24:21.723Z,1.90
2023-03-26T06:27:11.412Z,2.10
2023-03-26T06:30:18.476Z,1.70
2023-03-26T06:33:08.276Z,2.00
2023-03-26T06:35:45.535Z,2.40
2023-03-26T06:38:15.645Z,2.20
2023-03-26T06:40:49.341Z,2.00
2023-03-26T06:43:46.486Z,1.80
2023-03-26T06:46:37.589Z,1.70
2023-03-26T06:49:43.106Z,1.80
2023-03-26T06:52:41.995Z,1.60
2023-03-26T06:55:27.113Z,1.60
2023-03-26T06:58:27.852Z,2.20
2023-03-26T07:01:16.156Z,1.80
2023-03-26T07:04:04.376Z,1.90
2023-03-26T07:06:54.659Z,1.80
2023-03-26T07:09:42.417Z,1.80
2023-03-26T07:12:47.359Z,1.80
2023-03-26T07:15:24.163Z,1.30
2023-03-26T07:17:54.832Z,1.70
2023-03-26T07:20:29.712Z,1.80
2023-03-26T07:22:59.844Z,1.60
2023-03-26T07:25:40.844Z,1.70
2023-03-26T07:28:37.105Z,1.80
2023-03-26T07:31:26.516Z,1.60
2023-03-26T07:34:18.370Z,1.90
2023-03-26T07:37:26.502Z,1.70
2023-03-26T07:40:35.103Z,2.20
2023-03-26T07:43:58.504Z,1.50
2023-03-26T07:46:41.122Z,1.90
2023-03-26T07:49:35.008Z,2.10
2023-03-26T07:52:31.759Z,2.00
2023-03-26T07:55:19.966Z,1.90
2023-03-26T07:58:22.543Z,2.00
2023-03-26T08:01:19.280Z,2.20
2023-03-26T08:04:24.257Z,2.20
2023-03-26T08:07:39.398Z,1.50
2023-03-26T08:10:33.488Z,1.60
2023-03-26T08:13:21.168Z,2.50
2023-03-26T08:16:00.256Z,2.80
2023-03-26T08:18:44.472Z,2.30
2023-03-26T08:21:20.887Z,3.20
2023-03-26T08:24:01.744Z,3.00
2023-03-26T08:26:40.905Z,2.40
2023-03-26T08:29:20.610Z,2.50
2023-03-26T08:31:52.398Z,3.90
2023-03-26T08:34:21.471Z,3.50
2023-03-26T08:36:51.582Z,3.00
2023-03-26T08:39:21.843Z,4.50
2023-03-26T08:42:30.042Z,3.10
2023-03-26T08:45:36.685Z,5.70
2023-03-26T08:48:35.694Z,3.10
2023-03-26T08:51:34.234Z,7.60
2023-03-26T08:54:47.447Z,2.50
2023-03-26T08:57:37.841Z,3.00
2023-03-26T09:00:35.807Z,2.50
2023-03-26T09:03:39.273Z,1.80
2023-03-26T09:06:38.488Z,2.20
2023-03-26T09:09:42.791Z,1.90
2023-03-26T09:12:52.042Z,1.60
2023-03-26T09:15:53.146Z,2.20
2023-03-26T09:18:55.059Z,2.50
2023-03-26T09:22:10.682Z,1.80
2023-03-26T09:25:10.533Z,1.80
2023-03-26T09:30:37.528Z,1.80
2023-03-26T09:33:52.038Z,3.10
2023-03-26T09:36:46.490Z,2.10
2023-03-26T09:39:30.390Z,1.60
2023-03-26T09:42:16.550Z,1.40
2023-03-26T09:45:02.915Z,1.30
2023-03-26T09:47:56.586Z,2.30
2023-03-26T09:50:40.901Z,2.50
2023-03-26T09:53:26.386Z,2.70
2023-03-26T09:56:09.643Z,1.80
2023-03-26T09:58:56.776Z,1.30
2023-03-26T10:01:44.883Z,1.40
2023-03-26T10:04:45.385Z,1.00
2023-03-26T10:07:36.042Z,1.20
2023-03-26T10:10:16.528Z,0.90
2023-03-26T10:13:02.007Z,1.20
2023-03-26T10:15:58.015Z,1.30
2023-03-26T10:18:40.830Z,1.00
2023-03-26T10:21:24.618Z,1.20
2023-03-26T10:24:11.155Z,1.30
2023-03-26T10:27:09.741Z,1.30
2023-03-26T10:30:08.150Z,1.10
2023-03-26T10:32:46.804Z,1.20
2023-03-26T10:35:36.996Z,1.30
2023-03-26T10:38:20.319Z,1.00
2023-03-26T10:41:13.606Z,0.40
2023-03-26T10:44:14.085Z,0.30
2023-03-26T10:47:14.036Z,0.40
2023-03-26T10:50:16.963Z,0.50
2023-03-26T10:52:58.890Z,1.00
2023-03-26T10:55:33.463Z,1.40
2023-03-26T10:58:12.897Z,1.70
2023-03-26T11:00:50.150Z,1.30
2023-03-26T11:03:38.091Z,1.70
2023-03-26T11:06:18.644Z,1.40
2023-03-26T11:08:52.157Z,1.60
2023-03-26T11:11:29.804Z,2.90
2023-03-26T11:14:06.613Z,3.30
2023-03-26T11:16:55.097Z,4.70
2023-03-26T11:19:31.469Z,3.20
2023-03-26T11:22:13.717Z,3.20
2023-03-26T11:25:09.312Z,2.80
2023-03-26T11:27:56.335Z,3.20
2023-03-26T11:30:36.378Z,4.20
2023-03-26T11:33:10.754Z,4.80
2023-03-26T11:35:45.716Z,3.10
2023-03-26T11:38:21.456Z,3.90
2023-03-26T11:40:55.293Z,3.20
2023-03-26T11:43:49.141Z,2.40
2023-03-26T11:46:25.834Z,3.20
2023-03-26T11:48:58.885Z,3.20
2023-03-26T11:51:33.309Z,1.80
2023-03-26T11:54:03.465Z,1.90
2023-03-26T11:56:35.836Z,3.30
2023-03-26T11:59:11.718Z,3.70
2023-03-26T12:01:51.178Z,2.90
2023-03-26T12:04:28.684Z,4.30
2023-03-26T12:07:08.852Z,3.00
2023-03-26T12:09:48.956Z,1.60
2023-03-26T12:12:18.654Z,1.90
2023-03-26T12:14:48.301Z,3.00
2023-03-26T12:17:31.405Z,1.60
2023-03-26T12:20:06.156Z,1.70
2023-03-26T12:22:37.318Z,2.40
2023-03-26T12:25:19.836Z,2.00
2023-03-26T12:27:52.763Z,1.80
2023-03-26T12:30:24.876Z,2.10
2023-03-26T12:32:59.674Z,2.50
2023-03-26T12:35:34.372Z,1.90
2023-03-26T12:38:22.721Z,1.80
2023-03-26T12:41:06.238Z,1.80
2023-03-26T12:44:54.132Z,2.00
2023-03-26T12:47:59.337Z,2.50
2023-03-26T12:49:30.023Z,2.00
2023-03-26T12:52:11.495Z,1.70
2023-03-26T12:54:50.227Z,1.90
2023-03-26T12:57:23.388Z,1.80
2023-03-26T13:00:12.856Z,2.00
2023-03-26T13:03:06.722Z,1.40
2023-03-26T13:05:50.337Z,1.50
2023-03-26T13:08:51.690Z,0.70
2023-03-26T13:11:29.377Z,1.20
2023-03-26T13:14:11.722Z,1.20
2023-03-26T13:16:49.341Z,1.20
2023-03-26T13:19:28.310Z,1.30
2023-03-26T13:22:13.655Z,1.30
2023-03-26T13:24:53.077Z,1.00
2023-03-26T13:27:35.233Z,1.10
2023-03-26T13:30:15.018Z,1.60
2023-03-26T13:32:58.091Z,1.30
2023-03-26T13:35:33.496Z,1.20
2023-03-26T13:38:10.042Z,6.60
2023-03-26T13:40:52.818Z,1.70
2023-03-26T13:43:36.488Z,1.60
2023-03-26T13:46:16.733Z,1.80
2023-03-26T13:48:52.488Z,1.10
2023-03-26T13:51:29.810Z,0.80
2023-03-26T13:54:05.346Z,1.10
2023-03-26T13:56:43.368Z,1.50
2023-03-26T13:59:20.584Z,0.60
2023-03-26T14:01:54.826Z,1.10
2023-03-26T14:04:32.065Z,1.20
2023-03-26T14:07:09.834Z,2.50
2023-03-26T14:09:48.851Z,1.60
2023-03-26T14:12:40.180Z,1.30
2023-03-26T14:15:16.649Z,1.20
2023-03-26T14:17:51.949Z,1.50
2023-03-26T14:20:56.512Z,1.10
2023-03-26T14:24:12.589Z,1.60
2023-03-26T14:27:07.005Z,1.30
2023-03-26T14:29:59.501Z,1.30
2023-03-26T14:32:45.422Z,1.00
2023-03-26T14:35:36.831Z,1.20
2023-03-26T14:38:27.904Z,1.50
2023-03-26T14:41:02.337Z,1.60
2023-03-26T14:44:05.350Z,1.90
2023-03-26T14:46:50.690Z,2.00
2023-03-26T14:49:56.725Z,1.30
2023-03-26T14:52:36.442Z,1.40
2023-03-26T14:55:16.462Z,1.50
2023-03-26T14:58:03.292Z,1.20
2023-03-26T15:01:08.341Z,1.70
2023-03-26T15:04:40.242Z,1.50
2023-03-26T15:07:41.051Z,2.80
2023-03-26T15:10:38.669Z,2.30
2023-03-26T15:13:32.746Z,1.70
2023-03-26T15:16:19.786Z,1.10
2023-03-26T15:19:36.362Z,0.80
2023-03-26T15:22:47.581Z,1.10
2023-03-26T15:25:48.684Z,1.60
2023-03-26T15:29:13.402Z,1.40
2023-03-26T15:32:15.456Z,1.50
2023-03-26T15:35:15.326Z,1.70
2023-03-26T15:38:17.380Z,2.20
2023-03-26T15:40:57.824Z,2.70
2023-03-26T15:44:22.313Z,3.20
2023-03-26T15:46:58.647Z,1.80
2023-03-26T15:49:39.588Z,2.20
2023-03-26T15:52:27.942Z,2.90
2023-03-26T15:55:05.198Z,1.70
2023-03-26T15:57:44.013Z,1.80
2023-03-26T16:00:23.055Z,2.00
2023-03-26T16:03:14.343Z,3.20
2023-03-26T16:06:07.669Z,4.00
2023-03-26T16:08:46.404Z,2.70
2023-03-26T16:11:35.995Z,2.60
2023-03-26T16:14:17.174Z,2.00
2023-03-26T16:16:57.966Z,2.00
2023-03-26T16:19:49.584Z,1.20
2023-03-26T16:22:43.954Z,1.30
2023-03-26T16:25:32.208Z,2.00
2023-03-26T16:28:28.513Z,1.60
2023-03-26T16:31:36.753Z,1.90
2023-03-26T16:34:26.741Z,2.90
2023-03-26T16:36:58.824Z,3.80
2023-03-26T16:39:43.043Z,4.00
2023-03-26T16:42:30.868Z,4.00
2023-03-26T16:45:13.498Z,3.10
2023-03-26T16:47:55.086Z,3.90
2023-03-26T16:50:33.421Z,4.30
2023-03-26T16:53:15.898Z,3.00
2023-03-26T16:55:53.308Z,3.80
2023-03-26T16:58:33.162Z,3.70
2023-03-26T17:01:11.342Z,3.60
2023-03-26T17:06:46.508Z,3.70
2023-03-26T17:09:28.493Z,3.20
2023-03-26T17:12:07.760Z,3.70
2023-03-26T17:14:56.377Z,3.80
2023-03-26T17:17:46.779Z,3.40
2023-03-26T17:20:32.587Z,3.50
2023-03-26T17:23:21.316Z,3.70
2023-03-26T17:26:03.317Z,5.00
2023-03-26T17:28:52.620Z,5.20
2023-03-26T17:31:38.416Z,8.70
2023-03-26T17:34:55.597Z,15.20
2023-03-26T17:37:45.019Z,13.20
2023-03-26T17:40:51.711Z,18.30
2023-03-26T17:43:50.172Z,15.00
2023-03-26T17:46:33.568Z,12.00
2023-03-26T17:49:14.571Z,8.50
2023-03-26T17:51:51.649Z,11.50
2023-03-26T17:54:26.767Z,11.30
2023-03-26T17:57:04.675Z,8.90
2023-03-26T17:59:40.307Z,5.70
2023-03-26T18:02:16.309Z,5.60
2023-03-26T18:04:48.611Z,5.80
2023-03-26T18:07:49.415Z,6.00
2023-03-26T18:10:34.005Z,6.80
2023-03-26T18:13:20.931Z,8.40
2023-03-26T18:16:00.787Z,6.70
2023-03-26T18:18:36.258Z,7.50
2023-03-26T18:21:07.246Z,6.30
2023-03-26T18:23:38.896Z,6.00
2023-03-26T18:26:14.118Z,5.80
2023-03-26T18:28:45.781Z,5.10
2023-03-26T18:31:20.074Z,5.00
2023-03-26T18:33:54.268Z,5.30
2023-03-26T18:36:28.992Z,7.10
2023-03-26T18:39:00.629Z,9.20
2023-03-26T18:41:36.839Z,8.90
2023-03-26T18:44:08.802Z,5.90
2023-03-26T18:46:39.721Z,5.20
2023-03-26T18:49:13.858Z,6.00
2023-03-26T18:51:56.142Z,6.00
2023-03-26T18:54:32.932Z,5.70
2023-03-26T18:57:15.411Z,6.00
2023-03-26T18:59:45.861Z,5.90
2023-03-26T19:02:17.648Z,5.90
2023-03-26T19:04:53.926Z,5.80
2023-03-26T19:07:27.220Z,5.40
2023-03-26T19:09:57.369Z,5.20
2023-03-26T19:12:31.869Z,5.70
2023-03-26T19:15:07.896Z,5.50
2023-03-26T19:17:40.623Z,5.20
2023-03-26T19:20:16.721Z,5.30
2023-03-26T19:22:46.254Z,5.80
2023-03-26T19:25:22.456Z,4.90
2023-03-26T19:27:52.167Z,5.70
2023-03-26T19:30:29.582Z,5.50
2023-03-26T19:33:12.763Z,5.00
2023-03-26T19:35:48.524Z,6.30
2023-03-26T19:38:24.621Z,5.50
2023-03-26T19:40:58.066Z,4.90
2023-03-26T19:43:28.352Z,6.80
2023-03-26T19:46:01.295Z,6.50
2023-03-26T19:48:45.710Z,6.50
2023-03-26T19:51:22.379Z,6.30
2023-03-26T19:53:55.636Z,5.60
2023-03-26T19:56:27.335Z,6.50
2023-03-26T19:58:58.664Z,6.00
2023-03-26T20:01:35.930Z,6.80
2023-03-26T20:04:10.705Z,6.70
2023-03-26T20:06:43.769Z,6.40
2023-03-26T20:09:15.676Z,5.50
2023-03-26T20:11:46.692Z,6.10
2023-03-26T20:14:21.681Z,6.00
2023-03-26T20:16:51.808Z,6.20
2023-03-26T20:19:23.275Z,6.40
2023-03-26T20:21:53.475Z,6.90
2023-03-26T20:24:28.688Z,6.90
2023-03-26T20:26:58.191Z,6.80
2023-03-26T20:29:28.198Z,6.70
2023-03-26T20:32:01.470Z,7.00
2023-03-26T20:34:31.622Z,6.90
2023-03-26T20:37:02.242Z,6.30
2023-03-26T20:39:31.471Z,7.10
2023-03-26T20:42:03.858Z,8.50
2023-03-26T20:44:33.029Z,8.00
2023-03-26T20:47:03.722Z,8.20
2023-03-26T20:49:32.777Z,9.00
2023-03-26T20:52:02.263Z,9.60
2023-03-26T20:54:31.108Z,10.60
2023-03-26T20:57:02.281Z,10.20
2023-03-26T20:59:31.478Z,10.10
2023-03-26T21:02:00.945Z,10.10
2023-03-26T21:04:32.290Z,9.10
2023-03-26T21:07:17.548Z,9.10
2023-03-26T21:09:48.956Z,9.40
2023-03-26T21:12:28.987Z,8.60
2023-03-26T21:14:59.586Z,8.60
2023-03-26T21:17:30.246Z,8.90
2023-03-26T21:20:10.215Z,9.20
2023-03-26T21:22:45.869Z,9.40
2023-03-26T21:25:29.113Z,7.80
2023-03-26T21:28:15.632Z,8.40
2023-03-26T21:30:46.535Z,8.50
2023-03-26T21:33:17.052Z,7.60
2023-03-26T21:35:52.414Z,8.30
2023-03-26T21:38:23.762Z,8.40
2023-03-26T21:40:58.818Z,8.20
2023-03-26T21:43:31.462Z,8.00
2023-03-26T21:46:01.829Z,7.70
2023-03-26T21:48:31.704Z,8.30
2023-03-26T21:51:04.689Z,9.10
2023-03-26T21:53:35.982Z,8.40
2023-03-26T21:56:18.144Z,8.50
2023-03-26T21:58:55.172Z,7.20
2023-03-26T22:01:35.682Z,7.40
2023-03-26T22:04:14.435Z,7.60
2023-03-26T22:06:49.933Z,8.50
2023-03-26T22:09:26.392Z,8.30
2023-03-26T22:12:03.181Z,7.60
2023-03-26T22:14:33.418Z,7.60
2023-03-26T22:17:03.178Z,8.50
2023-03-26T22:19:34.019Z,8.30
2023-03-26T22:22:07.159Z,8.10
2023-03-26T22:24:36.574Z,8.50
2023-03-26T22:27:05.616Z,7.70
2023-03-26T22:29:35.366Z,8.50
2023-03-26T22:32:07.186Z,9.50
2023-03-26T22:34:38.292Z,8.80
2023-03-26T22:37:07.859Z,8.60
2023-03-26T22:39:37.284Z,10.00
2023-03-26T22:42:08.846Z,10.70
2023-03-26T22:44:37.953Z,11.10
2023-03-26T22:47:07.704Z,10.80
2023-03-26T22:49:37.857Z,10.90
2023-03-26T22:52:08.095Z,11.30
2023-03-26T22:54:37.273Z,10.90
2023-03-26T22:57:07.110Z,11.00
2023-03-26T22:59:36.544Z,9.90
2023-03-26T23:02:07.195Z,10.80
2023-03-26T23:04:37.266Z,13.30
2023-03-26T23:07:08.728Z,13.30
2023-03-26T23:09:37.962Z,14.00
2023-03-26T23:12:08.486Z,14.60
2023-03-26T23:14:37.805Z,16.10
2023-03-26T23:17:13.917Z,17.70
2023-03-26T23:19:44.163Z,15.10
2023-03-26T23:22:13.652Z,15.30
2023-03-26T23:24:42.538Z,14.90
2023-03-26T23:27:13.324Z,13.30
2023-03-26T23:29:45.264Z,11.80
2023-03-26T23:32:24.278Z,11.90
2023-03-26T23:34:55.273Z,11.50
2023-03-26T23:37:24.243Z,11.50
2023-03-26T23:39:53.171Z,11.80
2023-03-26T23:42:29.252Z,9.90
2023-03-26T23:45:00.567Z,9.80
2023-03-26T23:47:34.083Z,10.40
2023-03-26T23:50:07.214Z,10.30
2023-03-26T23:52:37.529Z,10.30
2023-03-26T23:55:08.217Z,8.40
2023-03-26T23:57:37.198Z,7.70
